createdAt,value
2019-06-15T00:03:31.841Z,9.07
2019-06-15T00:07:40.326Z,10.03
2019-06-15T00:11:48.830Z,10.07
2019-06-15T00:15:57.297Z,8.17
2019-06-15T00:20:06.315Z,10.47
2019-06-15T00:24:14.807Z,9.10
2019-06-15T00:28:23.280Z,9.60
2019-06-15T00:32:43.555Z,11.40
2019-06-15T00:36:52.129Z,10.07
2019-06-15T00:41:00.622Z,9.43
2019-06-15T00:45:09.199Z,10.93
2019-06-15T00:49:17.836Z,10.60
2019-06-15T00:53:26.429Z,10.67
2019-06-15T00:57:54.237Z,11.67
2019-06-15T01:02:02.725Z,12.10
2019-06-15T01:06:11.170Z,11.83
2019-06-15T01:10:19.791Z,11.20
2019-06-15T01:14:28.250Z,11.53
2019-06-15T01:18:36.757Z,11.70
2019-06-15T01:22:45.434Z,12.70
2019-06-15T01:26:53.938Z,11.80
2019-06-15T01:31:02.489Z,12.37
2019-06-15T01:35:11.207Z,12.60
2019-06-15T01:39:19.682Z,13.37
2019-06-15T01:43:28.206Z,12.83
2019-06-15T01:47:36.685Z,13.77
2019-06-15T01:51:45.121Z,14.30
2019-06-15T01:55:53.633Z,14.97
2019-06-15T02:00:02.898Z,15.25
2019-06-15T02:04:11.455Z,15.53
2019-06-15T02:08:19.952Z,15.30
2019-06-15T02:12:28.513Z,15.13
2019-06-15T02:16:37.061Z,14.73
2019-06-15T02:20:45.613Z,15.80
2019-06-15T02:24:54.104Z,17.25
2019-06-15T02:29:02.631Z,18.37
2019-06-15T02:33:11.164Z,17.57
2019-06-15T02:37:19.658Z,18.90
2019-06-15T02:41:28.161Z,18.13
2019-06-15T02:45:36.676Z,19.70
2019-06-15T02:49:45.196Z,17.60
2019-06-15T02:53:53.705Z,20.97
2019-06-15T02:58:02.214Z,17.80
2019-06-15T03:02:10.799Z,19.50
2019-06-15T03:06:19.331Z,20.03
2019-06-15T03:10:28.583Z,19.80
2019-06-15T03:14:37.508Z,18.70
2019-06-15T03:18:45.999Z,20.93
2019-06-15T03:22:54.457Z,20.90
2019-06-15T03:27:02.949Z,19.30
2019-06-15T03:31:11.435Z,17.90
2019-06-15T03:35:20.155Z,20.20
2019-06-15T03:39:28.688Z,20.20
2019-06-15T03:43:37.190Z,19.10
2019-06-15T03:47:45.714Z,19.53
2019-06-15T03:52:06.697Z,18.37
2019-06-15T03:56:21.620Z,18.63
2019-06-15T04:00:45.396Z,20.20
2019-06-15T04:04:53.856Z,18.83
2019-06-15T04:09:02.348Z,17.73
2019-06-15T04:13:10.864Z,21.77
2019-06-15T04:17:19.386Z,21.30
2019-06-15T04:21:27.886Z,20.80
2019-06-15T04:25:36.356Z,21.67
2019-06-15T04:29:44.921Z,20.83
2019-06-15T04:33:53.428Z,22.40
2019-06-15T04:38:02.012Z,22.37
2019-06-15T04:42:10.551Z,21.57
2019-06-15T04:46:19.056Z,22.03
2019-06-15T04:50:27.544Z,23.10
2019-06-15T04:54:36.044Z,23.67
2019-06-15T04:58:44.633Z,22.07
2019-06-15T05:02:53.203Z,22.57
2019-06-15T05:07:01.765Z,24.00
2019-06-15T05:11:10.261Z,25.17
2019-06-15T05:15:18.748Z,28.83
2019-06-15T05:19:27.235Z,28.37
2019-06-15T05:23:35.705Z,28.90
2019-06-15T05:27:44.221Z,30.93
2019-06-15T05:31:52.783Z,28.80
2019-06-15T05:36:20.613Z,28.97
2019-06-15T05:40:29.108Z,28.80
2019-06-15T05:44:37.578Z,27.67
2019-06-15T05:48:46.080Z,25.63
2019-06-15T05:52:54.565Z,27.70
2019-06-15T05:57:03.056Z,29.57
2019-06-15T06:01:11.532Z,27.80
2019-06-15T06:05:20.040Z,28.17
2019-06-15T06:09:28.526Z,26.17
2019-06-15T06:13:37.023Z,27.40
2019-06-15T06:17:45.551Z,27.37
2019-06-15T06:21:54.024Z,27.40
2019-06-15T06:26:02.748Z,26.43
2019-06-15T06:30:13.217Z,27.93
2019-06-15T06:34:22.236Z,24.98
2019-06-15T06:38:30.736Z,26.90
2019-06-15T06:42:39.266Z,26.73
2019-06-15T06:46:47.744Z,26.07
2019-06-15T06:50:56.251Z,25.17
2019-06-15T06:55:06.221Z,26.03
2019-06-15T06:59:14.680Z,25.87
2019-06-15T07:03:23.207Z,26.93
2019-06-15T07:07:31.787Z,24.97
2019-06-15T07:11:40.360Z,26.73
2019-06-15T07:15:48.827Z,27.13
2019-06-15T07:19:57.318Z,25.95
2019-06-15T07:24:05.788Z,24.90
2019-06-15T07:28:14.256Z,23.63
2019-06-15T07:32:22.768Z,25.83
2019-06-15T07:36:31.268Z,26.30
2019-06-15T07:40:39.815Z,22.73
2019-06-15T07:44:48.277Z,22.37
2019-06-15T07:48:56.773Z,19.10
2019-06-15T07:53:05.257Z,20.20
2019-06-15T07:57:13.706Z,18.33
2019-06-15T08:01:22.216Z,19.50
2019-06-15T08:05:30.725Z,16.40
2019-06-15T08:09:39.185Z,16.80
2019-06-15T08:13:47.758Z,21.00
2019-06-15T08:17:56.248Z,16.50
2019-06-15T08:22:04.725Z,15.87
2019-06-15T08:26:13.216Z,15.60
2019-06-15T08:30:27.420Z,14.70
2019-06-15T08:34:35.945Z,14.90
2019-06-15T08:38:44.481Z,12.70
2019-06-15T08:42:53.053Z,15.50
2019-06-15T08:47:01.567Z,13.50
2019-06-15T08:51:10.115Z,13.80
2019-06-15T08:55:18.760Z,12.70
2019-06-15T08:59:27.257Z,12.70
2019-06-15T09:03:35.731Z,11.83
2019-06-15T09:07:44.237Z,13.23
2019-06-15T09:11:52.733Z,16.47
2019-06-15T09:16:01.230Z,19.03
2019-06-15T09:20:10.566Z,19.07
2019-06-15T09:24:19.111Z,20.13
2019-06-15T09:28:27.632Z,20.93
2019-06-15T09:32:36.135Z,23.30
2019-06-15T09:36:44.682Z,21.87
2019-06-15T09:40:53.244Z,21.23
2019-06-15T09:45:01.735Z,23.13
2019-06-15T09:49:10.224Z,21.57
2019-06-15T09:53:18.672Z,18.97
2019-06-15T09:57:27.190Z,19.80
2019-06-15T10:01:35.753Z,17.00
2019-06-15T10:05:44.227Z,16.10
2019-06-15T10:09:52.787Z,14.43
2019-06-15T10:14:01.290Z,11.30
2019-06-15T10:18:09.845Z,8.70
2019-06-15T10:22:18.356Z,7.87
2019-06-15T10:26:26.926Z,4.90
2019-06-15T10:30:35.406Z,4.80
2019-06-15T10:34:43.895Z,5.53
2019-06-15T10:38:52.386Z,5.37
2019-06-15T10:43:00.870Z,5.00
2019-06-15T10:47:09.429Z,5.33
2019-06-15T10:51:17.913Z,5.07
2019-06-15T10:55:26.410Z,3.30
2019-06-15T10:59:34.885Z,3.00
2019-06-15T11:03:43.403Z,2.87
2019-06-15T11:07:52.135Z,2.87
2019-06-15T11:12:00.596Z,3.03
2019-06-15T11:16:09.076Z,2.80
2019-06-15T11:20:18.199Z,3.20
2019-06-15T11:24:26.683Z,2.97
2019-06-15T11:28:35.170Z,3.13
2019-06-15T11:32:43.664Z,2.80
2019-06-15T11:36:52.161Z,2.83
2019-06-15T11:41:00.627Z,3.60
2019-06-15T11:45:09.779Z,3.20
2019-06-15T11:49:18.275Z,3.70
2019-06-15T11:53:26.754Z,2.97
2019-06-15T11:57:35.241Z,3.37
2019-06-15T12:01:43.730Z,3.60
2019-06-15T12:06:11.639Z,4.53
2019-06-15T12:10:20.194Z,4.40
2019-06-15T12:14:28.748Z,4.47
2019-06-15T12:18:37.563Z,4.93
2019-06-15T12:22:46.112Z,4.10
2019-06-15T12:26:54.662Z,4.40
2019-06-15T12:31:03.170Z,4.30
2019-06-15T12:35:11.833Z,5.07
2019-06-15T12:39:20.318Z,4.33
2019-06-15T12:43:28.818Z,4.23
2019-06-15T12:47:37.339Z,4.03
2019-06-15T12:51:45.793Z,4.20
2019-06-15T12:55:54.278Z,5.07
2019-06-15T13:00:03.130Z,5.07
2019-06-15T13:04:11.621Z,4.57
2019-06-15T13:08:20.080Z,4.73
2019-06-15T13:12:28.564Z,4.50
2019-06-15T13:16:39.629Z,5.00
2019-06-15T13:20:47.298Z,4.63
2019-06-15T13:24:55.843Z,4.77
2019-06-15T13:29:04.694Z,5.57
2019-06-15T13:33:13.300Z,5.70
2019-06-15T13:37:21.791Z,5.33
2019-06-15T13:41:30.285Z,4.53
2019-06-15T13:45:38.836Z,5.50
2019-06-15T13:49:47.407Z,5.33
2019-06-15T13:53:55.899Z,4.50
2019-06-15T13:58:04.350Z,4.27
2019-06-15T14:02:12.822Z,5.10
2019-06-15T14:06:21.388Z,4.63
2019-06-15T14:10:30.348Z,5.50
2019-06-15T14:14:38.873Z,4.63
2019-06-15T14:18:47.409Z,4.63
2019-06-15T14:22:55.957Z,4.47
2019-06-15T14:27:04.464Z,4.80
2019-06-15T14:31:12.946Z,5.57
2019-06-15T14:35:21.408Z,5.57
2019-06-15T14:39:29.896Z,5.10
2019-06-15T14:43:38.443Z,5.67
2019-06-15T14:47:46.898Z,4.90
2019-06-15T14:51:55.386Z,6.23
2019-06-15T14:56:04.544Z,6.37
2019-06-15T15:00:16.702Z,5.37
2019-06-15T15:04:26.557Z,7.23
2019-06-15T15:08:36.765Z,7.03
2019-06-15T15:12:46.045Z,6.80
2019-06-15T15:16:56.997Z,7.40
2019-06-15T15:21:06.816Z,7.90
2019-06-15T15:25:16.853Z,8.80
2019-06-15T15:29:26.995Z,11.00
2019-06-15T15:33:36.447Z,9.60
2019-06-15T15:37:46.317Z,7.23
2019-06-15T15:41:56.292Z,6.83
2019-06-15T15:46:07.079Z,7.87
2019-06-15T15:50:17.624Z,8.80
2019-06-15T15:54:25.417Z,9.00
2019-06-15T15:58:36.176Z,9.20
2019-06-15T16:02:51.596Z,8.17
2019-06-15T16:06:56.176Z,8.47
2019-06-15T16:11:04.624Z,7.53
2019-06-15T16:15:13.257Z,7.53
2019-06-15T16:19:22.710Z,8.67
2019-06-15T16:23:31.201Z,7.37
2019-06-15T16:27:39.663Z,6.80
2019-06-15T16:32:07.485Z,6.70
2019-06-15T16:36:15.968Z,6.50
2019-06-15T16:40:30.376Z,5.77
2019-06-15T16:44:38.940Z,5.77
2019-06-15T16:48:47.489Z,6.03
2019-06-15T16:52:56.115Z,6.17
2019-06-15T16:57:04.650Z,5.75
2019-06-15T17:01:13.116Z,6.30
2019-06-15T17:05:21.633Z,5.93
2019-06-15T17:09:30.080Z,5.90
2019-06-15T17:13:38.565Z,5.63
2019-06-15T17:17:47.025Z,5.53
2019-06-15T17:21:58.171Z,6.20
2019-06-15T17:26:06.461Z,5.53
2019-06-15T17:30:17.213Z,5.37
2019-06-15T17:34:26.162Z,5.50
2019-06-15T17:38:36.913Z,5.10
2019-06-15T17:42:45.057Z,5.47
2019-06-15T17:46:56.366Z,6.77
2019-06-15T17:51:06.533Z,6.93
2019-06-15T17:55:14.397Z,5.43
2019-06-15T17:59:22.873Z,5.47
2019-06-15T18:03:31.393Z,4.90
2019-06-15T18:07:39.889Z,5.30
2019-06-15T18:11:48.343Z,5.83
2019-06-15T18:15:56.922Z,4.33
2019-06-15T18:20:06.792Z,5.40
2019-06-15T18:24:16.327Z,5.27
2019-06-15T18:28:26.519Z,5.17
2019-06-15T18:32:37.671Z,5.10
2019-06-15T18:36:45.703Z,4.77
2019-06-15T18:40:56.284Z,6.40
2019-06-15T18:45:06.963Z,5.97
2019-06-15T18:49:16.042Z,4.67
2019-06-15T18:53:46.390Z,5.03
2019-06-15T18:57:56.663Z,5.03
2019-06-15T19:02:06.549Z,5.07
2019-06-15T19:06:16.771Z,5.47
2019-06-15T19:10:31.204Z,5.60
2019-06-15T19:14:39.731Z,5.27
2019-06-15T19:18:48.203Z,5.40
2019-06-15T19:22:56.705Z,5.30
2019-06-15T19:27:05.234Z,4.53
2019-06-15T19:31:13.729Z,5.03
2019-06-15T19:35:22.290Z,5.00
2019-06-15T19:39:30.748Z,5.37
2019-06-15T19:43:39.221Z,4.67
2019-06-15T19:47:47.669Z,5.77
2019-06-15T19:51:56.551Z,6.50
2019-06-15T19:56:06.882Z,7.20
2019-06-15T20:00:17.116Z,7.30
2019-06-15T20:04:27.002Z,7.90
2019-06-15T20:08:36.137Z,8.37
2019-06-15T20:12:46.591Z,7.67
2019-06-15T20:16:56.117Z,8.27
2019-06-15T20:21:07.048Z,8.67
2019-06-15T20:25:16.109Z,8.90
2019-06-15T20:29:26.956Z,7.80
2019-06-15T20:33:37.040Z,8.93
2019-06-15T20:37:46.479Z,9.40
2019-06-15T20:41:56.436Z,10.27
2019-06-15T20:46:07.122Z,10.35
2019-06-15T20:50:25.394Z,9.77
2019-06-15T20:54:25.582Z,10.40
2019-06-15T20:58:36.986Z,11.77
2019-06-15T21:02:44.315Z,10.40
2019-06-15T21:06:52.863Z,12.23
2019-06-15T21:11:01.380Z,11.83
2019-06-15T21:15:11.607Z,12.00
2019-06-15T21:19:20.170Z,12.93
2019-06-15T21:23:28.628Z,12.27
2019-06-15T21:27:37.112Z,11.80
2019-06-15T21:31:46.402Z,11.70
2019-06-15T21:35:56.703Z,13.70
2019-06-15T21:40:08.771Z,12.87
2019-06-15T21:44:17.251Z,11.60
2019-06-15T21:48:26.845Z,13.30
2019-06-15T21:52:36.408Z,12.43
2019-06-15T21:56:45.035Z,12.83
2019-06-15T22:00:59.606Z,13.00
2019-06-15T22:05:08.933Z,14.97
2019-06-15T22:09:20.653Z,15.43
2019-06-15T22:13:27.752Z,14.67
2019-06-15T22:17:37.099Z,14.30
2019-06-15T22:21:47.813Z,15.20
2019-06-15T22:25:57.072Z,16.60
2019-06-15T22:30:08.865Z,17.27
2019-06-15T22:34:17.371Z,15.73
2019-06-15T22:38:25.875Z,16.00
2019-06-15T22:42:36.279Z,16.30
2019-06-15T22:46:46.451Z,14.10
2019-06-15T22:50:56.258Z,13.97
2019-06-15T22:55:26.072Z,14.27
2019-06-15T22:59:34.393Z,14.50
2019-06-15T23:03:42.856Z,13.63
2019-06-15T23:07:51.367Z,14.30
2019-06-15T23:11:59.853Z,14.77
2019-06-15T23:16:08.408Z,14.60
2019-06-15T23:20:17.263Z,14.97
2019-06-15T23:24:27.216Z,13.35
2019-06-15T23:28:36.048Z,12.80
2019-06-15T23:32:46.929Z,16.10
2019-06-15T23:36:59.985Z,14.93
2019-06-15T23:41:07.105Z,16.80
2019-06-15T23:45:16.283Z,15.57
2019-06-15T23:49:26.794Z,15.20
2019-06-15T23:53:36.854Z,15.60
2019-06-15T23:57:46.537Z,15.30
